Va Bene — ZCIP8 — position and weather

sailwx.info

Track history (hours):
 
Tides and Currents Weather Stations Pressure Air Temp Water Temp Dewpoint Dewpoint Depression Visibility Wind Speed Wind Dir Waves Ship Positions

Va Bene

Last reported at 2018-Jul-29 12:18 UTC. Time now 2018-Aug-14 23:41 UTC.
Position N 38°08' E 022°37'.
Warning: this ship's position is 16 days out of date.

Length 48 m; draft 3.4 m.

Type: Pleasure craft. MMSI: 319854000.

Date/timePositionNaut miles runAvg speedWind from/ knotsBaromVisibWave heightAir tempDewpointWater temp
2018-Jul-29 12:18N 38°08' E 022°37'412.1
2018-Jul-29 12:00N 38°06' E 022°41'612.2
2018-Jul-29 11:29N 38°03' E 022°48'612.3
2018-Jul-29 11:00N 37°59' E 022°54'6 9.2
2018-Jul-29 10:24N 37°56' E 022°59'2 5.1
2018-Jul-29 10:00N 37°55' E 023°01'510.7
2018-Jul-29 09:30N 37°53' E 023°08'612.4
2018-Jul-29 09:00N 37°53' E 023°16'612.3
2018-Jul-29 08:30N 37°52' E 023°23'612.6
2018-Jul-29 08:00N 37°51' E 023°31'612.6
2018-Jul-29 07:30N 37°50' E 023°39'612.5
2018-Jul-29 07:00N 37°45' E 023°43'5011.9
2018-Jul-29 02:50N 37°32' E 024°44'412.5
2018-Jul-29 02:30N 37°32' E 024°49'612.4
2018-Jul-29 02:00N 37°32' E 024°57'612.2
2018-Jul-29 01:30N 37°31' E 025°04'612.5
2018-Jul-29 01:00N 37°30' E 025°12'813.1
2018-Jul-29 00:25N 37°31' E 025°21'613.7
2018-Jul-29 00:00N 37°33' E 025°28'714.0
2018-Jul-28 23:30N 37°35' E 025°37'713.8
2018-Jul-28 23:00N 37°37' E 025°45'  
Track history (hours):
 
Tides and Currents Weather Stations Pressure Air Temp Water Temp Dewpoint Dewpoint Depression Visibility Wind Speed Wind Dir Waves Ship Positions

Va Bene

Last reported at 2018-Jul-29 12:18 UTC. Time now 2018-Aug-14 23:41 UTC.
Position N 38°08' E 022°37'.
Warning: this ship's position is 16 days out of date.

Length 48 m; draft 3.4 m.

Type: Pleasure craft. MMSI: 319854000.

Date/timePositionNaut miles runAvg speedWind from/ knotsBaromVisibWave heightAir tempDewpointWater temp
2018-Jul-29 12:18N 38°08' E 022°37'412.1
2018-Jul-29 12:00N 38°06' E 022°41'612.2
2018-Jul-29 11:29N 38°03' E 022°48'612.3
2018-Jul-29 11:00N 37°59' E 022°54'6 9.2
2018-Jul-29 10:24N 37°56' E 022°59'2 5.1
2018-Jul-29 10:00N 37°55' E 023°01'510.7
2018-Jul-29 09:30N 37°53' E 023°08'612.4
2018-Jul-29 09:00N 37°53' E 023°16'612.3
2018-Jul-29 08:30N 37°52' E 023°23'612.6
2018-Jul-29 08:00N 37°51' E 023°31'612.6
2018-Jul-29 07:30N 37°50' E 023°39'612.5
2018-Jul-29 07:00N 37°45' E 023°43'5011.9
2018-Jul-29 02:50N 37°32' E 024°44'412.5
2018-Jul-29 02:30N 37°32' E 024°49'612.4
2018-Jul-29 02:00N 37°32' E 024°57'612.2
2018-Jul-29 01:30N 37°31' E 025°04'612.5
2018-Jul-29 01:00N 37°30' E 025°12'813.1
2018-Jul-29 00:25N 37°31' E 025°21'613.7
2018-Jul-29 00:00N 37°33' E 025°28'714.0
2018-Jul-28 23:30N 37°35' E 025°37'713.8
2018-Jul-28 23:00N 37°37' E 025°45'  

Dump ship's entire track history